sensor_id;sensor_type;location;lat;lon;timestamp;P1;durP1;ratioP1;P2;durP2;ratioP2
950;SDS011;462;48.758;9.256;2022-07-31T00:00:33;5.60;;;5.00;;
950;SDS011;462;48.758;9.256;2022-07-31T00:08:37;11.10;;;6.07;;
950;SDS011;462;48.758;9.256;2022-07-31T00:16:39;5.27;;;4.87;;
950;SDS011;462;48.758;9.256;2022-07-31T00:24:43;6.43;;;5.37;;
950;SDS011;462;48.758;9.256;2022-07-31T00:32:45;6.97;;;5.73;;
950;SDS011;462;48.758;9.256;2022-07-31T00:40:49;6.20;;;5.70;;
950;SDS011;462;48.758;9.256;2022-07-31T00:48:52;6.47;;;5.97;;
950;SDS011;462;48.758;9.256;2022-07-31T00:56:56;6.20;;;5.60;;
950;SDS011;462;48.758;9.256;2022-07-31T01:04:58;6.53;;;5.90;;
950;SDS011;462;48.758;9.256;2022-07-31T01:13:03;6.17;;;5.77;;
950;SDS011;462;48.758;9.256;2022-07-31T01:21:09;6.73;;;6.10;;
950;SDS011;462;48.758;9.256;2022-07-31T01:29:19;7.50;;;6.60;;
950;SDS011;462;48.758;9.256;2022-07-31T01:37:26;7.80;;;7.20;;
950;SDS011;462;48.758;9.256;2022-07-31T01:45:33;6.87;;;6.23;;
950;SDS011;462;48.758;9.256;2022-07-31T01:53:39;6.10;;;5.70;;
950;SDS011;462;48.758;9.256;2022-07-31T02:01:48;7.40;;;6.80;;
950;SDS011;462;48.758;9.256;2022-07-31T02:09:51;9.07;;;7.90;;
950;SDS011;462;48.758;9.256;2022-07-31T02:17:58;7.30;;;6.57;;
950;SDS011;462;48.758;9.256;2022-07-31T02:26:07;6.60;;;6.10;;
950;SDS011;462;48.758;9.256;2022-07-31T02:34:12;7.90;;;7.00;;
950;SDS011;462;48.758;9.256;2022-07-31T02:42:14;8.20;;;7.40;;
950;SDS011;462;48.758;9.256;2022-07-31T02:50:19;8.07;;;7.43;;
950;SDS011;462;48.758;9.256;2022-07-31T02:58:25;8.90;;;7.30;;
950;SDS011;462;48.758;9.256;2022-07-31T03:06:28;9.60;;;8.80;;
950;SDS011;462;48.758;9.256;2022-07-31T03:14:32;8.57;;;7.97;;
950;SDS011;462;48.758;9.256;2022-07-31T03:22:37;8.60;;;7.90;;
950;SDS011;462;48.758;9.256;2022-07-31T03:30:40;9.27;;;8.47;;
950;SDS011;462;48.758;9.256;2022-07-31T03:38:44;8.83;;;8.23;;
950;SDS011;462;48.758;9.256;2022-07-31T03:47:00;9.80;;;8.90;;
950;SDS011;462;48.758;9.256;2022-07-31T03:55:05;9.83;;;8.60;;
950;SDS011;462;48.758;9.256;2022-07-31T04:03:10;9.93;;;8.63;;
950;SDS011;462;48.758;9.256;2022-07-31T04:11:46;10.03;;;9.13;;
950;SDS011;462;48.758;9.256;2022-07-31T04:19:50;8.90;;;8.07;;
950;SDS011;462;48.758;9.256;2022-07-31T04:27:54;8.70;;;8.00;;
950;SDS011;462;48.758;9.256;2022-07-31T04:35:56;8.80;;;8.10;;
950;SDS011;462;48.758;9.256;2022-07-31T04:44:01;8.60;;;8.00;;
950;SDS011;462;48.758;9.256;2022-07-31T04:52:17;6.83;;;6.23;;
950;SDS011;462;48.758;9.256;2022-07-31T05:00:24;6.50;;;5.90;;
950;SDS011;462;48.758;9.256;2022-07-31T05:08:27;7.17;;;6.30;;
950;SDS011;462;48.758;9.256;2022-07-31T05:16:31;6.93;;;6.23;;
950;SDS011;462;48.758;9.256;2022-07-31T05:24:36;6.10;;;5.60;;
950;SDS011;462;48.758;9.256;2022-07-31T05:32:42;10.90;;;5.93;;
950;SDS011;462;48.758;9.256;2022-07-31T05:40:44;8.50;;;5.67;;
950;SDS011;462;48.758;9.256;2022-07-31T05:49:10;5.53;;;4.90;;
950;SDS011;462;48.758;9.256;2022-07-31T05:57:13;6.13;;;4.60;;
950;SDS011;462;48.758;9.256;2022-07-31T06:05:17;6.13;;;5.50;;
950;SDS011;462;48.758;9.256;2022-07-31T06:13:22;6.50;;;5.07;;
950;SDS011;462;48.758;9.256;2022-07-31T06:21:27;11.43;;;6.30;;
950;SDS011;462;48.758;9.256;2022-07-31T06:29:30;6.10;;;5.50;;
950;SDS011;462;48.758;9.256;2022-07-31T06:37:34;5.97;;;5.10;;
950;SDS011;462;48.758;9.256;2022-07-31T06:45:47;4.63;;;4.20;;
950;SDS011;462;48.758;9.256;2022-07-31T06:54:20;5.60;;;5.10;;
950;SDS011;462;48.758;9.256;2022-07-31T07:02:25;5.70;;;5.30;;
950;SDS011;462;48.758;9.256;2022-07-31T07:10:29;6.20;;;5.70;;
950;SDS011;462;48.758;9.256;2022-07-31T07:18:32;4.90;;;4.13;;
950;SDS011;462;48.758;9.256;2022-07-31T07:26:36;5.33;;;4.87;;
950;SDS011;462;48.758;9.256;2022-07-31T07:34:38;4.50;;;4.10;;
950;SDS011;462;48.758;9.256;2022-07-31T07:42:50;6.00;;;4.43;;
950;SDS011;462;48.758;9.256;2022-07-31T07:50:52;5.57;;;4.50;;
950;SDS011;462;48.758;9.256;2022-07-31T07:59:05;5.43;;;4.10;;
950;SDS011;462;48.758;9.256;2022-07-31T08:07:25;5.20;;;3.87;;
950;SDS011;462;48.758;9.256;2022-07-31T08:15:30;5.03;;;4.07;;
950;SDS011;462;48.758;9.256;2022-07-31T08:23:44;4.13;;;3.83;;
950;SDS011;462;48.758;9.256;2022-07-31T08:31:48;4.30;;;4.00;;
950;SDS011;462;48.758;9.256;2022-07-31T08:40:11;3.80;;;3.50;;
950;SDS011;462;48.758;9.256;2022-07-31T08:48:15;5.20;;;3.80;;
950;SDS011;462;48.758;9.256;2022-07-31T08:56:21;4.10;;;3.40;;
950;SDS011;462;48.758;9.256;2022-07-31T09:04:26;4.67;;;4.23;;
950;SDS011;462;48.758;9.256;2022-07-31T09:12:31;5.00;;;4.47;;
950;SDS011;462;48.758;9.256;2022-07-31T09:20:39;4.03;;;3.73;;
950;SDS011;462;48.758;9.256;2022-07-31T09:28:47;6.13;;;3.93;;
950;SDS011;462;48.758;9.256;2022-07-31T09:36:52;4.03;;;3.73;;
950;SDS011;462;48.758;9.256;2022-07-31T09:45:18;3.70;;;3.40;;
950;SDS011;462;48.758;9.256;2022-07-31T09:53:23;3.73;;;3.13;;
950;SDS011;462;48.758;9.256;2022-07-31T10:01:40;4.67;;;3.33;;
950;SDS011;462;48.758;9.256;2022-07-31T10:09:44;3.20;;;3.00;;
950;SDS011;462;48.758;9.256;2022-07-31T10:17:52;5.37;;;3.93;;
950;SDS011;462;48.758;9.256;2022-07-31T10:26:32;4.50;;;3.03;;
950;SDS011;462;48.758;9.256;2022-07-31T10:34:35;2.90;;;2.60;;
950;SDS011;462;48.758;9.256;2022-07-31T10:43:17;3.33;;;2.93;;
950;SDS011;462;48.758;9.256;2022-07-31T10:51:47;3.87;;;3.00;;
950;SDS011;462;48.758;9.256;2022-07-31T11:00:11;4.93;;;3.90;;
950;SDS011;462;48.758;9.256;2022-07-31T11:08:49;2.67;;;2.47;;
950;SDS011;462;48.758;9.256;2022-07-31T11:17:30;3.33;;;2.80;;
950;SDS011;462;48.758;9.256;2022-07-31T11:25:56;6.53;;;2.93;;
950;SDS011;462;48.758;9.256;2022-07-31T11:34:02;3.30;;;3.00;;
950;SDS011;462;48.758;9.256;2022-07-31T11:42:04;2.70;;;2.50;;
950;SDS011;462;48.758;9.256;2022-07-31T11:50:08;2.80;;;2.47;;
950;SDS011;462;48.758;9.256;2022-07-31T11:58:12;2.57;;;2.33;;
950;SDS011;462;48.758;9.256;2022-07-31T12:06:18;4.93;;;2.97;;
950;SDS011;462;48.758;9.256;2022-07-31T12:14:28;4.20;;;2.27;;
950;SDS011;462;48.758;9.256;2022-07-31T12:22:32;3.23;;;2.80;;
950;SDS011;462;48.758;9.256;2022-07-31T12:30:35;4.83;;;2.37;;
950;SDS011;462;48.758;9.256;2022-07-31T12:38:39;2.60;;;2.07;;
950;SDS011;462;48.758;9.256;2022-07-31T12:46:42;3.77;;;2.47;;
950;SDS011;462;48.758;9.256;2022-07-31T12:54:46;3.30;;;2.93;;
950;SDS011;462;48.758;9.256;2022-07-31T13:02:48;2.53;;;2.33;;
950;SDS011;462;48.758;9.256;2022-07-31T13:10:52;2.70;;;2.40;;
950;SDS011;462;48.758;9.256;2022-07-31T13:18:55;2.50;;;2.30;;
950;SDS011;462;48.758;9.256;2022-07-31T13:26:59;2.17;;;1.97;;
950;SDS011;462;48.758;9.256;2022-07-31T13:35:01;2.37;;;2.17;;
950;SDS011;462;48.758;9.256;2022-07-31T13:43:06;3.53;;;2.47;;
950;SDS011;462;48.758;9.256;2022-07-31T13:51:08;2.23;;;2.00;;
950;SDS011;462;48.758;9.256;2022-07-31T13:59:12;2.10;;;1.90;;
950;SDS011;462;48.758;9.256;2022-07-31T14:07:15;3.80;;;2.23;;
950;SDS011;462;48.758;9.256;2022-07-31T14:15:19;5.30;;;2.67;;
950;SDS011;462;48.758;9.256;2022-07-31T14:23:22;2.50;;;2.30;;
950;SDS011;462;48.758;9.256;2022-07-31T14:31:26;2.60;;;2.40;;
950;SDS011;462;48.758;9.256;2022-07-31T14:39:28;2.70;;;2.50;;
950;SDS011;462;48.758;9.256;2022-07-31T14:47:32;2.13;;;2.03;;
950;SDS011;462;48.758;9.256;2022-07-31T14:55:35;4.33;;;2.00;;
950;SDS011;462;48.758;9.256;2022-07-31T15:03:40;2.10;;;2.00;;
950;SDS011;462;48.758;9.256;2022-07-31T15:11:43;2.73;;;2.37;;
950;SDS011;462;48.758;9.256;2022-07-31T15:19:48;1.80;;;1.70;;
950;SDS011;462;48.758;9.256;2022-07-31T15:27:51;2.27;;;1.97;;
950;SDS011;462;48.758;9.256;2022-07-31T15:35:55;2.70;;;2.50;;
950;SDS011;462;48.758;9.256;2022-07-31T15:43:57;2.23;;;2.00;;
950;SDS011;462;48.758;9.256;2022-07-31T15:52:04;2.40;;;2.20;;
950;SDS011;462;48.758;9.256;2022-07-31T16:00:07;2.00;;;1.80;;
950;SDS011;462;48.758;9.256;2022-07-31T16:08:12;2.23;;;2.03;;
950;SDS011;462;48.758;9.256;2022-07-31T16:16:17;3.23;;;2.23;;
950;SDS011;462;48.758;9.256;2022-07-31T16:24:22;2.10;;;2.00;;
950;SDS011;462;48.758;9.256;2022-07-31T16:32:25;2.13;;;2.03;;
950;SDS011;462;48.758;9.256;2022-07-31T16:40:29;4.60;;;2.63;;
950;SDS011;462;48.758;9.256;2022-07-31T16:48:32;2.87;;;2.43;;
950;SDS011;462;48.758;9.256;2022-07-31T16:56:36;2.93;;;2.33;;
950;SDS011;462;48.758;9.256;2022-07-31T17:04:39;3.30;;;2.73;;
950;SDS011;462;48.758;9.256;2022-07-31T17:12:43;2.50;;;2.30;;
950;SDS011;462;48.758;9.256;2022-07-31T17:20:45;3.93;;;2.63;;
950;SDS011;462;48.758;9.256;2022-07-31T17:28:49;2.57;;;2.37;;
950;SDS011;462;48.758;9.256;2022-07-31T17:36:52;2.93;;;2.63;;
950;SDS011;462;48.758;9.256;2022-07-31T17:44:56;2.70;;;2.50;;
950;SDS011;462;48.758;9.256;2022-07-31T17:53:01;3.30;;;2.70;;
950;SDS011;462;48.758;9.256;2022-07-31T18:01:09;3.37;;;3.00;;
950;SDS011;462;48.758;9.256;2022-07-31T18:09:12;3.70;;;2.80;;
950;SDS011;462;48.758;9.256;2022-07-31T18:17:19;4.20;;;3.23;;
950;SDS011;462;48.758;9.256;2022-07-31T18:25:22;5.23;;;3.37;;
950;SDS011;462;48.758;9.256;2022-07-31T18:33:26;4.67;;;3.00;;
950;SDS011;462;48.758;9.256;2022-07-31T18:41:28;3.10;;;2.90;;
950;SDS011;462;48.758;9.256;2022-07-31T18:49:37;3.90;;;3.50;;
950;SDS011;462;48.758;9.256;2022-07-31T18:57:39;3.87;;;2.90;;
950;SDS011;462;48.758;9.256;2022-07-31T19:05:44;3.53;;;3.23;;
950;SDS011;462;48.758;9.256;2022-07-31T19:13:49;2.77;;;2.57;;
950;SDS011;462;48.758;9.256;2022-07-31T19:21:53;4.93;;;3.27;;
950;SDS011;462;48.758;9.256;2022-07-31T19:29:55;3.90;;;3.33;;
950;SDS011;462;48.758;9.256;2022-07-31T19:38:02;4.63;;;3.70;;
950;SDS011;462;48.758;9.256;2022-07-31T19:46:04;3.30;;;3.07;;
950;SDS011;462;48.758;9.256;2022-07-31T19:54:08;4.13;;;3.73;;
950;SDS011;462;48.758;9.256;2022-07-31T20:02:11;4.67;;;3.20;;
950;SDS011;462;48.758;9.256;2022-07-31T20:10:14;3.33;;;3.03;;
950;SDS011;462;48.758;9.256;2022-07-31T20:18:17;3.73;;;3.43;;
950;SDS011;462;48.758;9.256;2022-07-31T20:26:26;4.80;;;3.13;;
950;SDS011;462;48.758;9.256;2022-07-31T20:34:30;3.63;;;3.30;;
950;SDS011;462;48.758;9.256;2022-07-31T20:42:34;3.10;;;2.90;;
950;SDS011;462;48.758;9.256;2022-07-31T20:50:37;3.30;;;3.03;;
950;SDS011;462;48.758;9.256;2022-07-31T20:58:41;4.63;;;3.20;;
950;SDS011;462;48.758;9.256;2022-07-31T21:06:43;3.70;;;2.90;;
950;SDS011;462;48.758;9.256;2022-07-31T21:14:47;2.40;;;2.20;;
950;SDS011;462;48.758;9.256;2022-07-31T21:22:49;4.20;;;2.50;;
950;SDS011;462;48.758;9.256;2022-07-31T21:30:53;2.53;;;2.33;;
950;SDS011;462;48.758;9.256;2022-07-31T21:38:56;3.77;;;3.00;;
950;SDS011;462;48.758;9.256;2022-07-31T21:47:00;2.23;;;2.13;;
950;SDS011;462;48.758;9.256;2022-07-31T21:55:03;4.23;;;2.20;;
950;SDS011;462;48.758;9.256;2022-07-31T22:03:08;3.33;;;2.37;;
950;SDS011;462;48.758;9.256;2022-07-31T22:11:10;2.93;;;2.73;;
950;SDS011;462;48.758;9.256;2022-07-31T22:19:14;2.77;;;2.57;;
950;SDS011;462;48.758;9.256;2022-07-31T22:27:17;4.43;;;2.40;;
950;SDS011;462;48.758;9.256;2022-07-31T22:35:39;3.00;;;2.60;;
950;SDS011;462;48.758;9.256;2022-07-31T22:43:41;4.40;;;2.07;;
950;SDS011;462;48.758;9.256;2022-07-31T22:51:45;2.67;;;2.47;;
950;SDS011;462;48.758;9.256;2022-07-31T22:59:48;2.80;;;2.60;;
950;SDS011;462;48.758;9.256;2022-07-31T23:07:52;2.93;;;2.50;;
950;SDS011;462;48.758;9.256;2022-07-31T23:15:54;3.20;;;2.73;;
950;SDS011;462;48.758;9.256;2022-07-31T23:23:58;3.20;;;2.87;;
950;SDS011;462;48.758;9.256;2022-07-31T23:32:00;3.90;;;3.47;;
950;SDS011;462;48.758;9.256;2022-07-31T23:40:06;3.20;;;2.80;;
950;SDS011;462;48.758;9.256;2022-07-31T23:48:09;2.80;;;2.60;;
950;SDS011;462;48.758;9.256;2022-07-31T23:56:13;3.20;;;2.90;;
